Time;durP1;ratioP1;P1;durP2;ratioP2;P2;SDS_P1;SDS_P2;PMS_P1;PMS_P2;Temp;Humidity;BMP_temperature;BMP_pressure;BME280_temperature;BME280_humidity;BME280_pressure;Samples;Min_cycle;Max_cycle;Signal;HPM_P1;HPM_P2
2022/05/02 00:01:44;;;;;;;36.05;30.85;;;10.10;76.00;;;;;;5013407;28;20045;-81
2022/05/02 00:04:11;;;;;;;35.38;29.27;;;10.10;76.10;;;;;;5012461;28;20060;-80
2022/05/02 00:06:38;;;;;;;37.33;30.33;;;10.10;76.10;;;;;;5019592;28;20026;-81
2022/05/02 00:09:04;;;;;;;36.15;29.55;;;10.10;76.20;;;;;;5014539;28;20041;-81
2022/05/02 00:11:31;;;;;;;33.70;29.42;;;10.00;76.20;;;;;;5016854;28;20827;-80
2022/05/02 00:13:57;;;;;;;36.15;29.98;;;10.00;76.40;;;;;;5019489;28;20038;-82
2022/05/02 00:16:22;;;;;;;38.20;32.05;;;9.90;76.40;;;;;;5019156;28;20041;-81
2022/05/02 00:18:48;;;;;;;36.05;30.65;;;9.90;76.50;;;;;;5012871;28;20038;-82
2022/05/02 00:21:14;;;;;;;37.30;31.20;;;9.80;76.60;;;;;;5016389;28;20045;-83
2022/05/02 00:23:39;;;;;;;40.08;33.30;;;9.70;76.90;;;;;;5015632;28;20079;-81
2022/05/02 00:26:05;;;;;;;36.42;31.38;;;9.70;77.10;;;;;;5018361;28;20125;-83
2022/05/02 00:28:30;;;;;;;39.13;32.65;;;9.60;77.30;;;;;;5016855;28;20074;-81
2022/05/02 00:30:56;;;;;;;41.20;33.13;;;9.60;77.60;;;;;;5015088;28;20045;-81
2022/05/02 00:33:22;;;;;;;43.03;32.55;;;9.60;77.70;;;;;;5018227;28;20025;-81
2022/05/02 00:35:47;;;;;;;42.30;34.58;;;9.60;78.00;;;;;;5016229;28;20036;-82
2022/05/02 00:38:13;;;;;;;42.13;34.00;;;9.50;78.10;;;;;;5012554;28;20153;-82
2022/05/02 00:40:39;;;;;;;42.60;33.85;;;9.50;78.20;;;;;;5015224;28;20034;-82
2022/05/02 00:43:04;;;;;;;44.00;35.17;;;9.50;78.20;;;;;;5013712;28;20030;-80
2022/05/02 00:45:37;;;;;;;40.58;34.00;;;9.50;78.20;;;;;;5015274;28;20037;-81
2022/05/02 00:48:03;;;;;;;44.50;36.13;;;9.50;78.40;;;;;;5012275;28;20435;-81
2022/05/02 00:50:40;;;;;;;42.13;33.38;;;9.50;78.40;;;;;;5017919;28;20038;-81
2022/05/02 00:53:10;;;;;;;42.10;35.15;;;9.40;78.50;;;;;;5014608;28;20044;-81
2022/05/02 00:55:37;;;;;;;43.28;34.85;;;9.40;78.60;;;;;;5017101;28;20025;-80
2022/05/02 00:58:04;;;;;;;42.10;35.80;;;9.40;78.70;;;;;;5011717;28;20079;-80
2022/05/02 01:00:32;;;;;;;43.05;35.15;;;9.30;78.80;;;;;;5012801;28;20552;-79
2022/05/02 01:02:59;;;;;;;44.97;37.65;;;9.30;79.00;;;;;;5011693;28;20033;-80
2022/05/02 01:05:25;;;;;;;47.85;39.15;;;9.30;79.20;;;;;;5022875;28;20035;-81
2022/05/02 01:07:51;;;;;;;43.83;35.95;;;9.30;79.30;;;;;;5017882;28;20041;-79
2022/05/02 01:10:17;;;;;;;45.00;36.13;;;9.30;79.40;;;;;;5013939;28;20041;-81
2022/05/02 01:12:44;;;;;;;44.67;36.85;;;9.20;79.50;;;;;;5015787;28;20045;-80
2022/05/02 01:15:10;;;;;;;44.55;37.50;;;9.20;79.50;;;;;;5018835;28;20090;-82
2022/05/02 01:17:41;;;;;;;48.70;38.45;;;9.20;79.50;;;;;;5016092;28;20861;-79
2022/05/02 01:20:11;;;;;;;47.72;39.78;;;9.20;79.60;;;;;;5011940;28;20045;-81
2022/05/02 01:22:37;;;;;;;48.28;38.42;;;9.20;79.60;;;;;;5014390;28;20400;-80
2022/05/02 01:25:03;;;;;;;44.63;38.50;;;9.20;79.70;;;;;;5009705;28;20175;-83
2022/05/02 01:27:28;;;;;;;46.03;39.42;;;9.10;79.80;;;;;;5029627;28;20297;-80
2022/05/02 01:29:54;;;;;;;45.50;39.85;;;9.10;79.80;;;;;;5046614;28;20091;-81
2022/05/02 01:32:19;;;;;;;46.05;38.97;;;9.10;80.10;;;;;;5039652;28;20025;-78
2022/05/02 01:34:45;;;;;;;48.75;42.08;;;9.10;80.10;;;;;;5041880;28;20044;-79
2022/05/02 01:37:14;;;;;;;49.97;40.10;;;9.00;80.20;;;;;;5025997;28;20168;-82
2022/05/02 01:39:40;;;;;;;49.67;41.45;;;9.00;80.30;;;;;;5012666;28;20050;-79
2022/05/02 01:42:09;;;;;;;51.05;42.53;;;8.90;80.50;;;;;;5016988;28;20132;-82
2022/05/02 01:44:35;;;;;;;48.28;42.67;;;8.90;80.50;;;;;;5014067;28;20293;-81
2022/05/02 01:47:01;;;;;;;50.35;42.72;;;8.90;80.70;;;;;;5013654;28;20379;-83
2022/05/02 01:49:27;;;;;;;52.03;43.05;;;8.90;80.80;;;;;;5015269;28;20043;-80
2022/05/02 01:51:54;;;;;;;54.47;45.70;;;8.80;80.80;;;;;;5015679;28;20025;-80
2022/05/02 01:54:20;;;;;;;52.30;43.22;;;8.70;81.10;;;;;;5012931;28;20034;-80
2022/05/02 01:56:46;;;;;;;51.33;43.15;;;8.70;81.10;;;;;;5014518;28;20158;-79
2022/05/02 01:59:11;;;;;;;50.38;42.20;;;8.70;81.30;;;;;;5015626;28;20083;-81
2022/05/02 02:01:37;;;;;;;51.03;42.35;;;8.60;81.40;;;;;;5014523;28;20068;-81
2022/05/02 02:05:48;;;;;;;49.10;43.42;;;8.60;81.40;;;;;;5015711;28;20037;-81
2022/05/02 02:06:51;;;;;;;52.60;44.22;;;8.60;81.40;;;;;;5012026;28;20069;-79
2022/05/02 02:09:17;;;;;;;49.63;42.40;;;8.60;81.40;;;;;;5011844;28;20033;-81
2022/05/02 02:11:43;;;;;;;51.17;44.08;;;8.60;81.50;;;;;;5013831;28;20042;-78
2022/05/02 02:14:08;;;;;;;52.92;43.90;;;8.60;81.40;;;;;;5009462;28;20498;-82
2022/05/02 02:16:34;;;;;;;53.60;44.80;;;8.60;81.40;;;;;;5015433;28;20029;-80
2022/05/02 02:19:00;;;;;;;52.80;45.22;;;8.60;81.40;;;;;;5013470;28;20045;-82
2022/05/02 02:21:25;;;;;;;53.45;45.83;;;8.50;81.40;;;;;;5007727;28;20053;-80
2022/05/02 02:23:51;;;;;;;54.40;45.45;;;8.50;81.50;;;;;;5013093;28;20521;-82
2022/05/02 02:26:17;;;;;;;53.00;46.05;;;8.40;81.60;;;;;;5019842;28;20037;-82
2022/05/02 02:28:42;;;;;;;53.35;44.78;;;8.40;81.70;;;;;;5011419;28;20041;-82
2022/05/02 02:31:08;;;;;;;57.38;46.50;;;8.40;81.80;;;;;;5013003;28;20195;-81
2022/05/02 02:33:34;;;;;;;54.47;46.03;;;8.40;81.60;;;;;;5006874;28;20033;-81
2022/05/02 02:35:59;;;;;;;54.88;47.20;;;8.30;81.80;;;;;;5017372;28;20499;-80
2022/05/02 02:38:26;;;;;;;59.38;47.85;;;8.30;81.90;;;;;;5025463;28;20041;-80
2022/05/02 02:40:52;;;;;;;55.80;46.20;;;8.20;82.00;;;;;;5016451;28;20053;-82
2022/05/02 02:43:17;;;;;;;56.80;47.97;;;8.20;82.00;;;;;;5010863;28;20306;-81
2022/05/02 02:45:43;;;;;;;57.55;47.88;;;8.20;82.20;;;;;;5015233;28;20637;-83
2022/05/02 02:48:09;;;;;;;58.05;46.08;;;8.20;82.30;;;;;;5018534;28;20689;-82
2022/05/02 02:50:34;;;;;;;57.75;46.97;;;8.20;82.20;;;;;;5022333;28;20048;-82
2022/05/02 02:53:00;;;;;;;55.92;46.38;;;8.10;82.30;;;;;;5017573;28;20313;-81
2022/05/02 02:55:26;;;;;;;59.67;49.88;;;8.10;82.40;;;;;;5017849;28;20495;-82
2022/05/02 02:57:52;;;;;;;57.92;46.60;;;8.10;82.50;;;;;;5017063;28;20052;-83
2022/05/02 03:00:18;;;;;;;59.35;47.88;;;8.10;82.50;;;;;;5018224;28;20061;-82
2022/05/02 03:02:44;;;;;;;61.92;50.42;;;8.10;82.40;;;;;;5013375;28;20284;-81
2022/05/02 03:07:55;;;;;;;64.25;50.53;;;8.00;82.60;;;;;;5014256;28;20082;-80
2022/05/02 03:10:21;;;;;;;59.08;49.33;;;8.00;82.60;;;;;;5015446;28;20653;-82
2022/05/02 03:12:47;;;;;;;59.38;48.03;;;7.90;82.70;;;;;;5013723;28;20092;-83
2022/05/02 03:15:12;;;;;;;57.67;48.42;;;7.90;82.50;;;;;;5015044;28;20044;-81
2022/05/02 03:17:38;;;;;;;56.45;47.05;;;7.90;82.60;;;;;;5015471;28;20452;-82
2022/05/02 03:20:05;;;;;;;54.17;44.85;;;7.90;82.40;;;;;;5014869;28;20033;-79
2022/05/02 03:22:31;;;;;;;59.45;48.05;;;7.80;82.30;;;;;;5018435;28;20088;-80
2022/05/02 03:24:56;;;;;;;58.42;47.55;;;7.80;82.20;;;;;;5016008;28;20120;-82
2022/05/02 03:27:22;;;;;;;59.83;47.42;;;7.70;82.30;;;;;;5018025;28;20033;-81
2022/05/02 03:29:47;;;;;;;56.88;47.75;;;7.80;82.40;;;;;;5014464;28;20051;-82
2022/05/02 03:32:13;;;;;;;56.40;46.20;;;7.80;82.50;;;;;;5015451;28;20030;-81
2022/05/02 03:34:39;;;;;;;56.67;45.65;;;7.70;82.40;;;;;;5017200;28;20034;-81
2022/05/02 03:37:04;;;;;;;55.00;45.03;;;7.70;82.40;;;;;;5016703;28;20040;-81
2022/05/02 03:39:30;;;;;;;57.08;47.55;;;7.70;82.40;;;;;;5012305;28;20122;-81
2022/05/02 03:41:56;;;;;;;61.45;49.67;;;7.70;82.40;;;;;;5012820;28;20069;-81
2022/05/02 03:44:21;;;;;;;66.00;51.85;;;7.70;82.40;;;;;;5015657;28;20098;-81
2022/05/02 03:46:47;;;;;;;62.80;51.58;;;7.60;83.10;;;;;;5018394;28;20041;-82
2022/05/02 03:49:13;;;;;;;64.18;52.65;;;7.60;83.70;;;;;;5011368;28;20454;-83
2022/05/02 03:51:38;;;;;;;66.35;54.28;;;7.60;84.00;;;;;;5014910;28;20033;-83
2022/05/02 03:54:04;;;;;;;63.15;50.75;;;7.50;84.10;;;;;;5015658;28;20449;-81
2022/05/02 03:56:30;;;;;;;69.03;55.28;;;7.50;84.30;;;;;;5018351;28;20037;-83
2022/05/02 03:58:55;;;;;;;66.07;53.80;;;7.50;84.60;;;;;;5015553;28;20044;-81
2022/05/02 04:01:22;;;;;;;72.70;57.15;;;7.40;84.60;;;;;;5016682;28;20140;-83
2022/05/02 04:03:49;;;;;;;70.32;55.15;;;7.40;84.70;;;;;;5017292;28;20045;-82
2022/05/02 04:06:15;;;;;;;71.82;58.15;;;7.40;84.80;;;;;;5020865;28;20099;-81
2022/05/02 04:08:40;;;;;;;69.07;53.65;;;7.40;84.80;;;;;;5013704;28;20037;-82
2022/05/02 04:11:06;;;;;;;67.88;52.88;;;7.40;84.80;;;;;;5014996;28;20042;-83
2022/05/02 04:13:32;;;;;;;62.63;52.17;;;7.40;84.60;;;;;;5018892;28;20037;-81
2022/05/02 04:15:57;;;;;;;60.85;50.35;;;7.40;84.40;;;;;;5011690;28;20117;-82
2022/05/02 04:18:23;;;;;;;62.22;50.83;;;7.30;84.10;;;;;;5013596;28;20520;-83
2022/05/02 04:20:48;;;;;;;64.63;52.95;;;7.30;84.00;;;;;;5012764;28;20380;-83
2022/05/02 04:23:14;;;;;;;61.28;49.13;;;7.40;83.90;;;;;;5006871;28;20041;-82
2022/05/02 04:25:40;;;;;;;69.55;54.95;;;7.30;83.70;;;;;;5000711;28;20025;-81
2022/05/02 04:28:07;;;;;;;64.30;52.38;;;7.30;83.50;;;;;;5009596;28;20059;-81
2022/05/02 04:30:33;;;;;;;67.10;52.80;;;7.40;83.60;;;;;;5007365;28;20068;-80
2022/05/02 04:32:58;;;;;;;66.40;54.00;;;7.30;83.60;;;;;;5006924;28;20453;-80
2022/05/02 04:35:24;;;;;;;64.97;52.35;;;7.40;83.60;;;;;;5004046;28;20045;-81
2022/05/02 04:37:49;;;;;;;67.82;55.50;;;7.40;83.70;;;;;;5009771;28;20117;-83
2022/05/02 04:40:15;;;;;;;61.95;52.00;;;7.40;83.70;;;;;;5018115;28;21000;-80
2022/05/02 04:42:41;;;;;;;65.90;51.95;;;7.50;83.80;;;;;;5007091;28;20463;-80
2022/05/02 04:45:07;;;;;;;67.78;55.08;;;7.50;83.80;;;;;;5013276;28;20068;-80
2022/05/02 04:47:32;;;;;;;66.57;52.67;;;7.60;83.70;;;;;;5007996;28;20057;-83
2022/05/02 04:49:58;;;;;;;63.78;52.53;;;7.60;83.40;;;;;;5002425;28;20464;-82
2022/05/02 04:52:24;;;;;;;59.90;48.67;;;7.60;82.90;;;;;;5012609;28;20108;-80
2022/05/02 04:54:49;;;;;;;64.10;52.45;;;7.70;82.90;;;;;;5017766;28;20728;-81
2022/05/02 04:57:15;;;;;;;61.03;50.65;;;7.80;82.60;;;;;;5015186;28;20037;-80
2022/05/02 04:59:41;;;;;;;61.58;49.75;;;7.80;82.40;;;;;;4999325;28;20050;-81
2022/05/02 05:02:06;;;;;;;69.50;55.33;;;7.90;82.30;;;;;;5014607;28;20030;-84
2022/05/02 05:04:32;;;;;;;70.10;55.65;;;7.90;82.30;;;;;;5002937;28;20042;-83
2022/05/02 05:06:58;;;;;;;61.13;51.15;;;7.90;82.40;;;;;;5002654;28;21344;-84
2022/05/02 05:09:23;;;;;;;64.10;52.83;;;8.10;82.40;;;;;;5002432;28;20034;-82
2022/05/02 05:12:13;;;;;;;65.03;51.97;;;8.10;82.20;;;;;;5000001;28;20640;-83
2022/05/02 05:18:06;;;;;;;70.75;57.40;;;8.30;82.10;;;;;;5003264;28;21440;-81
2022/05/02 05:20:41;;;;;;;69.63;58.20;;;8.30;82.30;;;;;;5001622;28;20058;-82
2022/05/02 05:23:48;;;;;;;73.05;57.78;;;8.30;82.10;;;;;;5000731;28;20122;-81
2022/05/02 05:26:56;;;;;;;70.47;56.35;;;8.40;82.20;;;;;;4998140;28;20045;-75
2022/05/02 05:29:31;;;;;;;78.40;59.00;;;8.50;82.30;;;;;;5004222;28;20026;-74
2022/05/02 05:31:56;;;;;;;70.97;57.65;;;8.60;82.30;;;;;;5004530;28;20037;-74
2022/05/02 05:34:48;;;;;;;69.85;57.42;;;8.60;82.70;;;;;;5005345;28;20092;-74
2022/05/02 05:37:41;;;;;;;70.53;56.83;;;8.60;82.80;;;;;;5009969;28;20119;-73
2022/05/02 05:40:38;;;;;;;68.82;57.88;;;8.70;82.90;;;;;;5013516;28;20053;-75
2022/05/02 05:43:34;;;;;;;74.13;56.97;;;8.70;83.10;;;;;;5013680;28;20122;-75
2022/05/02 05:46:41;;;;;;;76.47;60.65;;;8.80;83.00;;;;;;5022440;28;20080;-73
2022/05/02 05:49:20;;;;;;;74.57;58.10;;;8.80;83.50;;;;;;5005271;28;20095;-74
2022/05/02 05:52:05;;;;;;;71.53;57.42;;;9.00;83.30;;;;;;5032364;28;20370;-72
2022/05/02 05:55:06;;;;;;;74.68;57.83;;;9.10;82.80;;;;;;5016428;28;20041;-73
2022/05/02 05:57:44;;;;;;;70.35;56.28;;;9.30;82.20;;;;;;5018141;28;20033;-73
2022/05/02 06:00:11;;;;;;;69.00;55.22;;;9.50;82.20;;;;;;5013597;28;20057;-74
2022/05/02 06:02:52;;;;;;;67.82;55.95;;;9.60;81.80;;;;;;5016996;28;20075;-75
2022/05/02 06:05:18;;;;;;;70.82;57.10;;;9.80;80.90;;;;;;5016968;28;20535;-73
2022/05/02 06:07:46;;;;;;;69.60;57.00;;;9.90;80.40;;;;;;5015431;28;20155;-73
2022/05/02 06:10:16;;;;;;;67.55;54.13;;;9.90;79.90;;;;;;5014625;28;20029;-75
2022/05/02 06:12:44;;;;;;;69.97;55.47;;;9.80;79.80;;;;;;5028515;28;20036;-73
2022/05/02 06:20:52;;;;;;;65.82;52.65;;;10.10;79.50;;;;;;5015158;28;20048;-74
2022/05/02 06:23:18;;;;;;;63.60;54.78;;;10.10;79.10;;;;;;5017479;28;20542;-75
2022/05/02 06:25:49;;;;;;;69.13;54.60;;;10.20;79.00;;;;;;5020698;28;20545;-75
2022/05/02 06:28:16;;;;;;;64.07;52.55;;;10.40;79.30;;;;;;5021872;28;20022;-74
2022/05/02 06:30:44;;;;;;;65.72;51.40;;;10.50;77.90;;;;;;5022238;28;20045;-74
2022/05/02 06:33:13;;;;;;;60.92;49.97;;;10.70;77.60;;;;;;5018272;28;20033;-75
2022/05/02 06:35:53;;;;;;;64.75;49.58;;;10.80;77.00;;;;;;5013804;28;20026;-74
2022/05/02 06:38:43;;;;;;;57.47;46.90;;;10.90;76.60;;;;;;5013494;28;20033;-73
2022/05/02 06:41:34;;;;;;;60.53;47.40;;;11.00;76.10;;;;;;5020284;28;20048;-73
2022/05/02 06:44:37;;;;;;;59.67;48.25;;;11.10;75.50;;;;;;5013463;28;20533;-73
2022/05/02 06:47:33;;;;;;;59.05;45.08;;;11.40;74.90;;;;;;5017832;28;20061;-73
2022/05/02 06:50:02;;;;;;;61.30;44.35;;;11.60;74.40;;;;;;5026733;28;20041;-73
2022/05/02 06:52:39;;;;;;;55.55;42.85;;;11.80;73.20;;;;;;5015823;28;20849;-72
2022/05/02 06:55:10;;;;;;;52.58;41.55;;;12.10;72.50;;;;;;5014479;28;20029;-73
2022/05/02 06:58:14;;;;;;;49.88;42.47;;;12.50;71.90;;;;;;5015868;28;20831;-72
2022/05/02 07:00:53;;;;;;;48.35;41.20;;;12.70;70.40;;;;;;5013330;28;20884;-73
2022/05/02 07:03:47;;;;;;;43.25;36.65;;;12.90;69.40;;;;;;5011464;28;20037;-71
2022/05/02 07:06:27;;;;;;;45.78;36.85;;;13.00;67.40;;;;;;5012346;28;20358;-72
2022/05/02 07:09:00;;;;;;;44.60;36.33;;;12.80;66.30;;;;;;5016734;28;20029;-76
2022/05/02 07:11:42;;;;;;;47.30;38.58;;;12.80;67.00;;;;;;5014085;28;20388;-76
2022/05/02 07:14:19;;;;;;;43.97;37.00;;;13.00;67.30;;;;;;5018760;28;20040;-74
2022/05/02 07:16:49;;;;;;;43.08;35.97;;;13.20;66.20;;;;;;5016227;28;20037;-76
2022/05/02 07:19:51;;;;;;;42.00;36.28;;;13.10;66.60;;;;;;5013609;28;20026;-73
2022/05/02 07:22:39;;;;;;;41.63;36.10;;;13.20;65.00;;;;;;5015928;28;20036;-75
2022/05/02 07:25:13;;;;;;;43.35;36.55;;;13.40;65.70;;;;;;5013606;28;20033;-77
2022/05/02 07:28:16;;;;;;;44.25;36.30;;;13.70;65.20;;;;;;5011367;28;20549;-78
2022/05/02 07:30:45;;;;;;;42.70;35.80;;;13.80;65.20;;;;;;5011367;28;20048;-73
2022/05/02 07:33:12;;;;;;;38.40;33.55;;;14.10;64.40;;;;;;5023936;28;20056;-77
2022/05/02 07:35:40;;;;;;;41.08;34.38;;;14.20;62.60;;;;;;5018902;28;20463;-75
2022/05/02 07:38:07;;;;;;;36.42;31.27;;;14.10;61.70;;;;;;5009999;28;20591;-75
2022/05/02 07:40:34;;;;;;;38.65;30.38;;;14.10;61.70;;;;;;5014163;28;20544;-77
2022/05/02 07:43:00;;;;;;;33.50;29.65;;;14.10;61.10;;;;;;5011276;28;20462;-74
2022/05/02 07:45:31;;;;;;;35.80;30.77;;;14.20;60.20;;;;;;5010535;28;20477;-74
2022/05/02 07:48:04;;;;;;;36.83;31.08;;;14.30;58.90;;;;;;5008347;28;20565;-76
2022/05/02 07:50:31;;;;;;;38.13;30.90;;;14.50;61.20;;;;;;5008897;28;20203;-75
2022/05/02 07:52:59;;;;;;;35.95;28.38;;;14.80;59.40;;;;;;5017485;28;20048;-77
2022/05/02 07:55:28;;;;;;;32.92;27.58;;;14.90;57.20;;;;;;5011664;28;20049;-75
2022/05/02 07:57:56;;;;;;;33.58;28.80;;;15.10;56.40;;;;;;5013439;28;20035;-77
2022/05/02 08:00:24;;;;;;;32.03;26.02;;;15.10;55.90;;;;;;5016541;28;20038;-76
2022/05/02 08:02:50;;;;;;;31.80;28.00;;;15.10;54.60;;;;;;5018546;28;20254;-74
2022/05/02 08:05:20;;;;;;;32.50;26.85;;;15.10;56.30;;;;;;5015639;28;20040;-76
2022/05/02 08:07:46;;;;;;;30.55;26.10;;;15.40;54.80;;;;;;5015898;28;20576;-77
2022/05/02 08:10:38;;;;;;;29.73;25.88;;;15.60;54.90;;;;;;5015310;28;20033;-75
2022/05/02 08:13:25;;;;;;;28.77;24.48;;;15.80;53.40;;;;;;5022542;28;20079;-76
2022/05/02 08:16:03;;;;;;;32.00;26.77;;;15.40;52.10;;;;;;5014465;28;20570;-74
2022/05/02 08:18:37;;;;;;;30.55;24.10;;;15.50;53.70;;;;;;5017700;28;20200;-77
2022/05/02 08:21:18;;;;;;;29.80;25.00;;;15.70;52.40;;;;;;5020843;28;20042;-74
2022/05/02 08:27:15;;;;;;;26.95;23.48;;;15.90;50.50;;;;;;5025190;28;20146;-75
2022/05/02 08:30:07;;;;;;;27.58;22.55;;;16.30;50.20;;;;;;5026550;28;21030;-76
2022/05/02 08:32:53;;;;;;;26.10;21.13;;;16.60;49.80;;;;;;5026951;28;20033;-78
2022/05/02 08:35:46;;;;;;;25.40;20.90;;;16.40;49.40;;;;;;5016494;28;20037;-76
2022/05/02 08:38:40;;;;;;;27.42;22.88;;;16.70;49.00;;;;;;5014823;28;20033;-75
2022/05/02 08:41:09;;;;;;;23.70;19.53;;;16.70;50.00;;;;;;5013253;28;20034;-76
2022/05/02 08:43:43;;;;;;;23.05;19.25;;;16.80;47.70;;;;;;5019052;28;20746;-77
2022/05/02 08:46:28;;;;;;;22.92;20.30;;;16.60;47.30;;;;;;5016548;28;20037;-75
2022/05/02 08:52:24;;;;;;;23.75;19.25;;;16.80;47.30;;;;;;5018809;28;20148;-73
2022/05/02 08:55:32;;;;;;;23.75;18.05;;;16.80;47.70;;;;;;5011006;28;20462;-75
2022/05/02 08:58:23;;;;;;;20.83;17.67;;;16.80;47.90;;;;;;4978423;28;20507;-76
2022/05/02 09:01:18;;;;;;;20.42;17.23;;;16.80;46.60;;;;;;5013827;28;20053;-75
2022/05/02 09:04:10;;;;;;;;;;;16.90;46.80;;;;;;5019985;28;20110;-75
2022/05/02 09:07:06;;;;;;;23.52;19.08;;;17.10;45.00;;;;;;5015555;28;19920;-76
2022/05/02 09:09:51;;;;;;;22.75;18.33;;;17.10;46.70;;;;;;5011920;28;20045;-73
2022/05/02 09:12:22;;;;;;;22.33;18.83;;;17.40;46.70;;;;;;5011806;28;20065;-75
2022/05/02 09:15:22;;;;;;;23.05;19.65;;;17.60;44.80;;;;;;5011140;28;20038;-75
2022/05/02 09:18:00;;;;;;;23.75;19.63;;;17.80;45.80;;;;;;5008430;28;20564;-73
2022/05/02 09:20:28;;;;;;;22.90;18.85;;;18.00;45.10;;;;;;5016467;28;20049;-74
2022/05/02 09:23:26;;;;;;;25.90;20.05;;;18.20;44.70;;;;;;5024941;28;20180;-73
2022/05/02 09:26:23;;;;;;;22.05;17.63;;;18.40;44.00;;;;;;4981954;28;20036;-74
2022/05/02 09:29:11;;;;;;;22.08;18.20;;;17.90;42.60;;;;;;5024192;28;20629;-74
2022/05/02 09:32:17;;;;;;;25.63;19.63;;;17.70;44.70;;;;;;5017237;28;20045;-74
2022/05/02 09:35:02;;;;;;;21.85;17.88;;;17.40;44.50;;;;;;4967311;28;20038;-73
2022/05/02 09:37:41;;;;;;;19.58;17.23;;;17.60;43.90;;;;;;5026878;28;20049;-73
2022/05/02 09:40:15;;;;;;;24.40;19.42;;;17.40;44.00;;;;;;5013216;28;20037;-73
2022/05/02 09:43:00;;;;;;;22.98;17.92;;;17.10;44.80;;;;;;5019130;28;20063;-75
2022/05/02 09:52:04;;;;;;;23.30;17.95;;;18.50;42.80;;;;;;5012274;28;20037;-78
2022/05/02 09:58:04;;;;;;;22.85;16.17;;;17.80;44.30;;;;;;5013520;28;20048;-73
2022/05/02 10:01:08;;;;;;;15.63;13.10;;;18.10;43.40;;;;;;5020110;28;20049;-73
2022/05/02 10:03:37;;;;;;;24.35;18.70;;;18.60;41.10;;;;;;5013836;28;20033;-75
2022/05/02 10:06:11;;;;;;;23.67;19.48;;;19.00;42.80;;;;;;5016080;28;20088;-75
2022/05/02 10:09:01;;;;;;;20.20;16.00;;;18.70;42.30;;;;;;5009985;28;20092;-74
2022/05/02 10:11:39;;;;;;;25.05;18.20;;;18.80;41.70;;;;;;5011486;28;20111;-75
2022/05/02 10:14:40;;;;;;;20.35;16.52;;;18.70;40.90;;;;;;5007724;28;20088;-75
2022/05/02 10:17:08;;;;;;;22.33;17.10;;;18.60;41.60;;;;;;5013440;28;20542;-76
2022/05/02 10:19:55;;;;;;;20.02;17.52;;;19.10;38.90;;;;;;5018453;28;20958;-77
2022/05/02 10:22:38;;;;;;;19.63;16.30;;;18.90;39.30;;;;;;5013287;28;20037;-76
2022/05/02 10:25:07;;;;;;;20.85;18.23;;;19.10;40.30;;;;;;5013883;28;20315;-76
2022/05/02 10:28:07;;;;;;;26.05;20.65;;;18.80;41.20;;;;;;5016621;28;20578;-74
2022/05/02 10:31:04;;;;;;;22.50;18.88;;;18.60;41.60;;;;;;5016725;28;20030;-74
2022/05/02 10:33:49;;;;;;;22.17;17.98;;;18.60;41.30;;;;;;5014565;28;20575;-73
2022/05/02 10:36:17;;;;;;;25.98;20.98;;;18.70;42.30;;;;;;5011364;28;20029;-74
2022/05/02 10:38:52;;;;;;;25.85;22.45;;;18.80;42.00;;;;;;5015786;28;20026;-75
2022/05/02 10:41:27;;;;;;;27.58;21.80;;;18.80;42.40;;;;;;5024220;28;20532;-74
2022/05/02 10:44:03;;;;;;;29.23;22.20;;;19.10;41.50;;;;;;5016166;28;20037;-73
2022/05/02 10:46:31;;;;;;;25.80;22.55;;;18.80;41.00;;;;;;5026819;28;20026;-75
2022/05/02 10:49:12;;;;;;;31.25;24.23;;;18.70;41.90;;;;;;5018748;28;20484;-74
2022/05/02 10:51:59;;;;;;;33.17;23.20;;;18.50;41.90;;;;;;5012160;28;20064;-74
2022/05/02 10:54:48;;;;;;;28.42;22.58;;;18.30;42.70;;;;;;5013221;28;20116;-74
2022/05/02 10:57:20;;;;;;;27.27;22.10;;;18.30;43.50;;;;;;5015766;28;20041;-78
2022/05/02 10:59:52;;;;;;;24.15;21.02;;;18.80;43.00;;;;;;5007109;28;20058;-76
2022/05/02 11:02:52;;;;;;;25.98;21.10;;;19.00;42.50;;;;;;5015321;28;20069;-73
2022/05/02 11:05:22;;;;;;;23.52;19.00;;;19.20;41.80;;;;;;5012462;28;20544;-74
2022/05/02 11:08:07;;;;;;;24.40;20.35;;;19.50;40.40;;;;;;5013706;28;20770;-73
2022/05/02 11:10:44;;;;;;;25.58;21.02;;;19.00;40.80;;;;;;5006335;28;20579;-76
2022/05/02 11:13:28;;;;;;;23.90;19.90;;;18.70;40.40;;;;;;5017981;28;20332;-74
2022/05/02 11:16:09;;;;;;;24.83;20.83;;;18.60;41.10;;;;;;5012841;28;20033;-74
2022/05/02 11:22:04;;;;;;;21.45;18.08;;;19.10;40.50;;;;;;5027888;28;20948;-75
2022/05/02 11:25:06;;;;;;;19.85;17.02;;;18.60;40.60;;;;;;5000707;28;20037;-77
2022/05/02 11:28:04;;;;;;;20.08;17.67;;;18.80;40.80;;;;;;5015039;28;20064;-74
2022/05/02 11:30:55;;;;;;;18.55;16.17;;;19.10;40.10;;;;;;5013597;28;20528;-74
2022/05/02 11:33:53;;;;;;;18.88;16.15;;;19.60;39.30;;;;;;5014309;28;20038;-74
2022/05/02 11:36:26;;;;;;;20.55;15.98;;;19.50;39.20;;;;;;5011420;28;20026;-73
2022/05/02 11:39:01;;;;;;;25.02;16.30;;;19.70;38.60;;;;;;5009081;28;20037;-73
2022/05/02 11:41:30;;;;;;;20.17;15.68;;;19.90;37.30;;;;;;5015911;28;20266;-74
2022/05/02 11:44:08;;;;;;;19.48;15.43;;;19.80;37.70;;;;;;5016717;28;20062;-73
2022/05/02 11:46:54;;;;;;;18.05;14.95;;;19.90;37.70;;;;;;5015584;28;20029;-75
2022/05/02 11:49:53;;;;;;;18.98;16.58;;;19.90;37.40;;;;;;5011440;28;20030;-73
2022/05/02 11:52:36;;;;;;;20.70;14.52;;;19.80;37.50;;;;;;5013806;28;20037;-75
2022/05/02 11:55:04;;;;;;;16.63;13.38;;;19.80;38.10;;;;;;5012394;28;20092;-74
2022/05/02 11:57:38;;;;;;;19.30;15.23;;;19.60;36.00;;;;;;5010442;28;20795;-75
2022/05/02 12:00:11;;;;;;;20.67;16.10;;;19.50;37.70;;;;;;5015089;28;20064;-76
2022/05/02 12:02:58;;;;;;;22.77;17.58;;;19.70;39.20;;;;;;5018170;28;20105;-75
2022/05/02 12:05:35;;;;;;;19.63;16.65;;;20.00;37.60;;;;;;5020373;28;20045;-76
2022/05/02 12:08:03;;;;;;;20.42;16.92;;;20.20;37.80;;;;;;5016687;28;20060;-76
2022/05/02 12:10:36;;;;;;;19.80;16.58;;;20.30;39.20;;;;;;5019225;28;20037;-75
2022/05/02 12:13:05;;;;;;;20.42;17.83;;;19.70;38.10;;;;;;5017972;28;20318;-78
2022/05/02 12:15:32;;;;;;;19.52;15.63;;;19.10;39.60;;;;;;5021126;28;20217;-76
2022/05/02 12:18:01;;;;;;;17.77;14.80;;;18.80;40.50;;;;;;5024575;28;20042;-75
2022/05/02 12:20:30;;;;;;;18.67;14.23;;;19.00;38.60;;;;;;5025758;28;20061;-76
2022/05/02 12:23:00;;;;;;;16.85;14.13;;;19.50;38.40;;;;;;5022690;28;20033;-75
2022/05/02 12:25:31;;;;;;;19.23;15.50;;;20.10;36.90;;;;;;5022544;28;20117;-75
2022/05/02 12:27:58;;;;;;;19.48;16.55;;;20.30;36.60;;;;;;5020131;28;20599;-73
2022/05/02 12:30:28;;;;;;;22.30;17.23;;;20.10;40.20;;;;;;5019332;28;20414;-75
2022/05/02 12:33:00;;;;;;;22.25;16.95;;;20.50;39.20;;;;;;5020039;28;20025;-77
2022/05/02 12:35:33;;;;;;;19.05;15.93;;;19.80;39.60;;;;;;5016461;28;20041;-74
2022/05/02 12:38:09;;;;;;;20.15;16.33;;;18.80;39.40;;;;;;5019716;28;20029;-75
2022/05/02 12:40:38;;;;;;;18.83;16.00;;;18.70;40.90;;;;;;5012272;28;20124;-75
2022/05/02 12:43:16;;;;;;;20.92;16.40;;;19.40;41.30;;;;;;5005168;28;20064;-76
2022/05/02 12:45:46;;;;;;;19.27;15.45;;;19.60;39.30;;;;;;5026741;28;20040;-75
2022/05/02 12:48:29;;;;;;;18.02;14.55;;;19.80;39.60;;;;;;5007003;28;20025;-72
2022/05/02 12:50:58;;;;;;;17.30;15.00;;;19.80;38.50;;;;;;5010017;28;20456;-77
2022/05/02 12:56:13;;;;;;;18.17;15.45;;;19.80;38.20;;;;;;5020028;28;20049;-74
2022/05/02 13:01:40;;;;;;;18.20;15.45;;;20.00;37.00;;;;;;5015640;28;20048;-75
2022/05/02 13:04:18;;;;;;;18.88;15.43;;;19.50;37.20;;;;;;5015888;28;20046;-75
2022/05/02 13:06:46;;;;;;;17.55;14.18;;;19.70;38.00;;;;;;5013689;28;20412;-75
2022/05/02 13:09:20;;;;;;;18.05;13.63;;;20.10;36.80;;;;;;5024319;28;20508;-73
2022/05/02 13:11:46;;;;;;;18.67;14.50;;;20.30;37.30;;;;;;5024807;28;20067;-73
2022/05/02 13:14:25;;;;;;;16.50;14.68;;;20.30;35.70;;;;;;5017899;28;20322;-73
2022/05/02 13:16:52;;;;;;;17.58;14.43;;;20.00;36.50;;;;;;5014205;28;20128;-75
2022/05/02 13:19:34;;;;;;;17.38;14.77;;;19.80;37.20;;;;;;5013930;28;20045;-75
2022/05/02 13:22:00;;;;;;;17.63;15.35;;;19.30;37.80;;;;;;5018861;28;20499;-75
2022/05/02 13:24:26;;;;;;;19.27;15.50;;;19.30;38.60;;;;;;5025429;28;20037;-74
2022/05/02 13:27:06;;;;;;;18.50;14.45;;;19.50;37.80;;;;;;5014813;28;20087;-75
2022/05/02 13:29:59;;;;;;;17.52;14.38;;;20.00;38.00;;;;;;5016257;28;20067;-76
2022/05/02 13:32:34;;;;;;;16.10;13.35;;;20.20;36.80;;;;;;5018171;28;20051;-75
2022/05/02 13:35:05;;;;;;;16.40;13.25;;;20.60;36.00;;;;;;5012372;28;20121;-73
2022/05/02 13:37:41;;;;;;;17.58;14.27;;;20.50;35.60;;;;;;5008748;28;20025;-75
2022/05/02 13:40:10;;;;;;;16.58;13.25;;;20.30;36.90;;;;;;5015252;28;20038;-73
2022/05/02 13:43:25;;;;;;;19.80;16.40;;;20.50;36.90;;;;;;5015978;28;20153;-75